createdAt,value
2022-10-29T00:00:04.461Z,0.00
2022-10-29T00:01:04.442Z,0.00
2022-10-29T00:02:04.536Z,0.00
2022-10-29T00:03:04.471Z,0.00
2022-10-29T00:04:04.417Z,0.00
2022-10-29T00:05:04.408Z,0.00
2022-10-29T00:06:04.400Z,0.00
2022-10-29T00:07:04.371Z,0.00
2022-10-29T00:08:04.388Z,0.00
2022-10-29T00:09:04.355Z,0.00
2022-10-29T00:10:04.349Z,0.00
2022-10-29T00:11:04.321Z,0.00
2022-10-29T00:12:04.320Z,0.00
2022-10-29T00:13:04.299Z,0.00
2022-10-29T00:14:04.320Z,0.00
2022-10-29T00:15:04.290Z,0.00
2022-10-29T00:16:04.271Z,0.00
2022-10-29T00:17:04.259Z,0.00
2022-10-29T00:18:04.256Z,0.00
2022-10-29T00:19:04.240Z,0.00
2022-10-29T00:20:04.341Z,0.00
2022-10-29T00:21:04.209Z,0.00
2022-10-29T00:22:04.210Z,0.00
2022-10-29T00:23:04.189Z,0.00
2022-10-29T00:24:04.180Z,0.00
2022-10-29T00:25:04.190Z,0.00
2022-10-29T00:26:04.196Z,0.00
2022-10-29T00:27:04.149Z,0.00
2022-10-29T00:28:04.140Z,0.00
2022-10-29T00:29:04.133Z,0.00
2022-10-29T00:30:04.121Z,0.00
2022-10-29T00:31:04.124Z,0.00
2022-10-29T00:32:04.141Z,0.00
2022-10-29T00:33:04.084Z,0.00
2022-10-29T00:34:04.075Z,0.00
2022-10-29T00:35:04.052Z,0.00
2022-10-29T00:36:04.051Z,0.00
2022-10-29T00:37:04.066Z,0.00
2022-10-29T00:38:04.034Z,0.00
2022-10-29T00:39:04.013Z,0.00
2022-10-29T00:40:04.099Z,0.00
2022-10-29T00:41:03.990Z,0.00
2022-10-29T00:42:04.010Z,0.00
2022-10-29T00:43:03.969Z,0.00
2022-10-29T00:44:03.961Z,0.00
2022-10-29T00:45:03.943Z,0.00
2022-10-29T00:46:03.942Z,0.00
2022-10-29T00:47:03.923Z,0.00
2022-10-29T00:48:03.932Z,0.00
2022-10-29T00:49:03.906Z,0.00
2022-10-29T00:50:03.900Z,0.00
2022-10-29T00:51:03.873Z,0.00
2022-10-29T00:52:03.871Z,0.00
2022-10-29T00:53:03.873Z,0.00
2022-10-29T00:54:03.869Z,0.00
2022-10-29T00:55:03.833Z,0.00
2022-10-29T00:56:03.823Z,0.00
2022-10-29T00:57:03.814Z,0.00
2022-10-29T00:58:03.803Z,0.00
2022-10-29T00:59:03.810Z,0.00
2022-10-29T01:00:03.787Z,0.00
2022-10-29T01:01:03.764Z,0.00
2022-10-29T01:02:03.836Z,0.00
2022-10-29T01:03:03.811Z,0.00
2022-10-29T01:04:03.747Z,0.00
2022-10-29T01:05:03.744Z,0.00
2022-10-29T01:06:03.713Z,0.00
2022-10-29T01:07:03.698Z,0.00
2022-10-29T01:08:03.703Z,0.00
2022-10-29T01:09:03.673Z,0.00
2022-10-29T01:10:03.662Z,0.00
2022-10-29T01:11:03.675Z,0.00
2022-10-29T01:12:03.663Z,0.00
2022-10-29T01:13:03.748Z,0.00
2022-10-29T01:14:03.622Z,0.00
2022-10-29T01:15:03.613Z,0.00
2022-10-29T01:16:03.603Z,0.00
2022-10-29T01:17:03.619Z,0.00
2022-10-29T01:18:03.573Z,0.00
2022-10-29T01:19:03.642Z,0.00
2022-10-29T01:20:03.565Z,0.00
2022-10-29T01:21:03.549Z,0.00
2022-10-29T01:22:03.533Z,0.00
2022-10-29T01:23:03.543Z,0.00
2022-10-29T01:24:03.514Z,0.00
2022-10-29T01:25:03.502Z,0.00
2022-10-29T01:26:03.484Z,0.00
2022-10-29T01:27:03.484Z,0.00
2022-10-29T01:28:03.472Z,0.00
2022-10-29T01:29:03.474Z,0.00
2022-10-29T01:30:03.446Z,0.00
2022-10-29T01:31:03.491Z,0.00
2022-10-29T01:32:03.425Z,0.00
2022-10-29T01:33:03.408Z,0.00
2022-10-29T01:34:03.402Z,0.00
2022-10-29T01:35:03.403Z,0.00
2022-10-29T01:36:03.375Z,0.00
2022-10-29T01:37:03.356Z,0.00
2022-10-29T01:38:03.355Z,0.00
2022-10-29T01:39:03.336Z,0.00
2022-10-29T01:40:03.331Z,0.00
2022-10-29T01:41:03.429Z,0.00
2022-10-29T01:42:03.324Z,0.00
2022-10-29T01:43:03.294Z,0.00
2022-10-29T01:44:03.284Z,0.00
2022-10-29T01:45:03.265Z,0.00
2022-10-29T01:46:03.285Z,0.00
2022-10-29T01:47:03.244Z,0.00
2022-10-29T01:48:03.255Z,0.00
2022-10-29T01:49:03.224Z,0.00
2022-10-29T01:50:03.213Z,0.00
2022-10-29T01:51:03.204Z,0.00
2022-10-29T01:52:03.269Z,0.00
2022-10-29T01:53:03.183Z,0.00
2022-10-29T01:54:03.175Z,0.00
2022-10-29T01:55:03.167Z,0.00
2022-10-29T01:56:03.158Z,0.00
2022-10-29T01:57:03.134Z,0.00
2022-10-29T01:58:03.189Z,0.00
2022-10-29T01:59:03.115Z,0.00
2022-10-29T02:00:03.106Z,0.00
2022-10-29T02:01:03.180Z,0.00
2022-10-29T02:02:03.132Z,0.00
2022-10-29T02:03:03.075Z,0.00
2022-10-29T02:04:03.086Z,0.00
2022-10-29T02:05:03.045Z,0.00
2022-10-29T02:06:03.048Z,0.00
2022-10-29T02:07:03.025Z,0.00
2022-10-29T02:08:03.029Z,0.00
2022-10-29T02:09:02.995Z,0.00
2022-10-29T02:10:03.016Z,0.00
2022-10-29T02:11:02.987Z,0.00
2022-10-29T02:12:02.972Z,0.00
2022-10-29T02:13:03.083Z,0.00
2022-10-29T02:14:02.944Z,0.00
2022-10-29T02:15:02.946Z,0.00
2022-10-29T02:16:02.947Z,0.00
2022-10-29T02:17:02.918Z,0.00
2022-10-29T02:18:02.906Z,0.00
2022-10-29T02:19:02.897Z,0.00
2022-10-29T02:20:02.884Z,0.00
2022-10-29T02:21:02.876Z,0.00
2022-10-29T02:22:02.859Z,0.00
2022-10-29T02:23:02.851Z,0.00
2022-10-29T02:24:02.846Z,0.00
2022-10-29T02:25:02.881Z,0.00
2022-10-29T02:26:02.826Z,0.00
2022-10-29T02:27:02.815Z,0.00
2022-10-29T02:28:02.801Z,0.00
2022-10-29T02:29:02.777Z,0.00
2022-10-29T02:30:02.770Z,0.00
2022-10-29T02:31:02.760Z,0.00
2022-10-29T02:32:02.749Z,0.00
2022-10-29T02:33:02.758Z,0.00
2022-10-29T02:34:02.738Z,0.00
2022-10-29T02:35:02.709Z,0.00
2022-10-29T02:36:02.705Z,0.00
2022-10-29T02:37:02.688Z,0.00
2022-10-29T02:38:02.694Z,0.00
2022-10-29T02:39:02.690Z,0.00
2022-10-29T02:40:02.657Z,0.00
2022-10-29T02:41:02.638Z,0.00
2022-10-29T02:42:02.640Z,0.00
2022-10-29T02:43:02.622Z,0.00
2022-10-29T02:44:02.625Z,0.00
2022-10-29T02:45:02.625Z,0.00
2022-10-29T02:46:02.596Z,0.00
2022-10-29T02:47:02.577Z,0.00
2022-10-29T02:48:02.567Z,0.00
2022-10-29T02:49:02.546Z,0.00
2022-10-29T02:50:02.552Z,0.00
2022-10-29T02:51:02.558Z,0.00
2022-10-29T02:52:02.526Z,0.00
2022-10-29T02:53:02.509Z,0.00
2022-10-29T02:54:02.508Z,0.00
2022-10-29T02:55:02.487Z,0.00
2022-10-29T02:56:02.476Z,0.00
2022-10-29T02:57:02.484Z,0.00
2022-10-29T02:58:02.456Z,0.00
2022-10-29T02:59:04.247Z,0.00
2022-10-29T03:00:02.427Z,0.00
2022-10-29T03:01:02.437Z,0.00
2022-10-29T03:02:02.509Z,0.00
2022-10-29T03:03:02.477Z,0.00
2022-10-29T03:04:02.410Z,0.00
2022-10-29T03:05:02.378Z,0.00
2022-10-29T03:06:02.369Z,0.00
2022-10-29T03:07:02.346Z,0.00
2022-10-29T03:08:02.347Z,0.00
2022-10-29T03:09:02.346Z,0.00
2022-10-29T03:10:02.333Z,0.00
2022-10-29T03:11:02.308Z,0.00
2022-10-29T03:12:02.297Z,0.00
2022-10-29T03:13:02.287Z,0.00
2022-10-29T03:14:02.269Z,0.00
2022-10-29T03:15:02.271Z,0.00
2022-10-29T03:16:02.252Z,0.00
2022-10-29T03:17:02.246Z,0.00
2022-10-29T03:18:02.230Z,0.00
2022-10-29T03:19:02.216Z,0.00
2022-10-29T03:20:02.228Z,0.00
2022-10-29T03:21:02.188Z,0.00
2022-10-29T03:22:02.194Z,0.00
2022-10-29T03:23:02.170Z,0.00
2022-10-29T03:24:02.178Z,0.00
2022-10-29T03:25:02.138Z,0.00
2022-10-29T03:26:02.170Z,0.00
2022-10-29T03:27:02.119Z,0.00
2022-10-29T03:28:02.121Z,0.00
2022-10-29T03:29:02.101Z,0.00
2022-10-29T03:30:02.092Z,0.00
2022-10-29T03:31:02.098Z,0.00
2022-10-29T03:32:02.079Z,0.00
2022-10-29T03:33:02.107Z,0.00
2022-10-29T03:34:02.048Z,0.00
2022-10-29T03:35:02.038Z,0.00
2022-10-29T03:36:02.095Z,0.00
2022-10-29T03:37:02.030Z,0.00
2022-10-29T03:38:01.999Z,0.00
2022-10-29T03:39:01.986Z,0.00
2022-10-29T03:40:01.992Z,0.00
2022-10-29T03:41:01.968Z,0.00
2022-10-29T03:42:01.958Z,0.00
2022-10-29T03:43:01.960Z,0.00
2022-10-29T03:44:01.942Z,0.00
2022-10-29T03:45:01.921Z,0.00
2022-10-29T03:46:01.910Z,0.00
2022-10-29T03:47:01.897Z,0.00
2022-10-29T03:48:01.891Z,0.00
2022-10-29T03:49:01.888Z,0.00
2022-10-29T03:50:01.880Z,0.00
2022-10-29T03:51:01.851Z,0.00
2022-10-29T03:52:01.849Z,0.00
2022-10-29T03:53:01.839Z,0.00
2022-10-29T03:54:01.818Z,0.00
2022-10-29T03:55:01.818Z,0.00
2022-10-29T03:56:01.802Z,0.00
2022-10-29T03:57:01.788Z,0.00
2022-10-29T03:58:01.771Z,0.00
2022-10-29T03:59:01.796Z,0.00
2022-10-29T04:00:01.750Z,0.00
2022-10-29T04:01:01.792Z,0.00
2022-10-29T04:02:01.830Z,0.00
2022-10-29T04:03:01.863Z,0.00
2022-10-29T04:04:01.724Z,0.00
2022-10-29T04:05:01.713Z,0.00
2022-10-29T04:06:01.679Z,0.00
2022-10-29T04:07:01.707Z,0.00
2022-10-29T04:08:01.662Z,0.00
2022-10-29T04:09:01.650Z,0.00
2022-10-29T04:10:01.640Z,0.00
2022-10-29T04:11:01.632Z,0.00
2022-10-29T04:12:01.622Z,0.00
2022-10-29T04:13:01.632Z,0.00
2022-10-29T04:14:01.590Z,0.00
2022-10-29T04:15:01.590Z,0.00
2022-10-29T04:16:01.583Z,0.00
2022-10-29T04:17:01.577Z,0.00
2022-10-29T04:18:01.549Z,0.00
2022-10-29T04:19:01.566Z,0.00
2022-10-29T04:20:01.536Z,0.00
2022-10-29T04:24:06.358Z,0.00
2022-10-29T04:27:49.290Z,0.00
2022-10-29T04:29:02.448Z,0.00
2022-10-29T04:30:01.443Z,0.00
2022-10-29T04:31:01.413Z,0.00
2022-10-29T04:32:01.393Z,0.00
2022-10-29T04:33:01.379Z,0.00
2022-10-29T04:34:01.370Z,0.00
2022-10-29T04:35:01.390Z,0.00
2022-10-29T04:36:01.352Z,0.00
2022-10-29T04:37:01.331Z,0.00
2022-10-29T04:38:01.320Z,0.00
2022-10-29T04:39:01.311Z,0.00
2022-10-29T04:40:01.316Z,0.00
2022-10-29T04:41:01.314Z,0.00
2022-10-29T04:42:01.280Z,0.00
2022-10-29T04:43:01.270Z,0.00
2022-10-29T04:44:01.258Z,0.00
2022-10-29T04:45:01.253Z,0.00
2022-10-29T04:46:01.261Z,0.00
2022-10-29T04:47:01.222Z,0.00
2022-10-29T04:48:01.209Z,0.00
2022-10-29T04:49:01.257Z,0.00
2022-10-29T04:50:01.180Z,0.00
2022-10-29T04:51:01.178Z,0.00
2022-10-29T04:52:01.188Z,0.00
2022-10-29T04:53:01.150Z,0.00
2022-10-29T04:54:01.146Z,0.00
2022-10-29T04:55:01.130Z,0.00
2022-10-29T04:56:01.122Z,0.00
2022-10-29T04:57:01.131Z,0.00
2022-10-29T04:58:01.114Z,0.00
2022-10-29T04:59:01.090Z,0.00
2022-10-29T05:00:01.069Z,0.00
2022-10-29T05:01:01.173Z,0.00
2022-10-29T05:02:01.049Z,0.00
2022-10-29T05:03:01.104Z,0.00
2022-10-29T05:04:01.035Z,0.00
2022-10-29T05:05:01.030Z,0.00
2022-10-29T05:06:01.008Z,0.00
2022-10-29T05:07:00.990Z,0.00
2022-10-29T05:08:08.043Z,0.00
2022-10-29T05:09:00.973Z,0.00
2022-10-29T05:10:00.963Z,0.00
2022-10-29T05:11:00.953Z,0.00
2022-10-29T05:12:00.972Z,0.00
2022-10-29T05:13:00.932Z,0.00
2022-10-29T05:14:00.941Z,0.00
2022-10-29T05:15:00.913Z,0.00
2022-10-29T05:16:00.894Z,0.00
2022-10-29T05:17:00.926Z,0.00
2022-10-29T05:18:00.863Z,0.00
2022-10-29T05:19:00.862Z,0.00
2022-10-29T05:20:00.863Z,0.00
2022-10-29T05:21:00.843Z,0.00
2022-10-29T05:22:00.823Z,0.00
2022-10-29T05:23:00.814Z,0.00
2022-10-29T05:24:00.808Z,0.00
2022-10-29T05:25:00.797Z,0.00
2022-10-29T05:26:00.802Z,0.00
2022-10-29T05:27:00.774Z,0.00
2022-10-29T05:28:00.754Z,0.00
2022-10-29T05:29:00.754Z,0.00
2022-10-29T05:30:00.738Z,0.00
2022-10-29T05:31:00.735Z,0.00
2022-10-29T05:32:00.745Z,0.00
2022-10-29T05:33:00.704Z,0.00
2022-10-29T05:34:00.694Z,0.00
2022-10-29T05:35:00.683Z,0.00
2022-10-29T05:36:00.665Z,0.00
2022-10-29T05:37:00.654Z,0.00
2022-10-29T05:38:00.663Z,0.00
2022-10-29T05:39:00.633Z,0.00
2022-10-29T05:40:00.623Z,0.00
2022-10-29T05:41:00.614Z,0.00
2022-10-29T05:42:00.601Z,4.00
2022-10-29T05:43:00.874Z,4.00
2022-10-29T05:44:00.600Z,4.00
2022-10-29T05:45:00.563Z,0.00
2022-10-29T05:46:00.559Z,4.00
2022-10-29T05:47:00.547Z,4.00
2022-10-29T05:48:00.588Z,4.00
2022-10-29T05:49:00.544Z,8.00
2022-10-29T05:50:00.505Z,4.00
2022-10-29T05:51:00.503Z,8.00
2022-10-29T05:52:00.492Z,8.00
2022-10-29T05:53:00.473Z,12.00
2022-10-29T05:54:00.465Z,12.00
2022-10-29T05:55:00.493Z,12.00
2022-10-29T05:56:00.441Z,12.00
2022-10-29T05:57:00.433Z,16.00
2022-10-29T05:58:00.415Z,16.00
2022-10-29T05:59:00.405Z,20.00
2022-10-29T06:00:00.394Z,20.00
2022-10-29T06:01:00.404Z,24.00
2022-10-29T06:02:00.519Z,32.00
2022-10-29T06:03:00.706Z,40.00
2022-10-29T06:04:00.356Z,48.00
2022-10-29T06:05:00.343Z,56.00
2022-10-29T06:06:00.467Z,68.00
2022-10-29T06:07:00.314Z,76.00
2022-10-29T06:08:00.779Z,84.00
2022-10-29T06:09:00.309Z,88.00
2022-10-29T06:10:00.289Z,96.00
2022-10-29T06:11:00.275Z,100.00
2022-10-29T06:12:00.282Z,104.00
2022-10-29T06:13:00.256Z,116.00
2022-10-29T06:14:00.243Z,128.00
2022-10-29T06:15:00.236Z,148.00
2022-10-29T06:16:00.217Z,164.00
2022-10-29T06:17:00.215Z,188.00
2022-10-29T06:18:00.205Z,208.00
2022-10-29T06:19:00.207Z,228.00
2022-10-29T06:20:00.320Z,252.00
2022-10-29T06:21:00.170Z,268.00
2022-10-29T06:22:00.694Z,284.00
2022-10-29T06:23:00.170Z,300.00
2022-10-29T06:24:00.125Z,316.00
2022-10-29T06:25:00.122Z,336.00
2022-10-29T06:26:00.106Z,352.00
2022-10-29T06:27:00.094Z,376.00
2022-10-29T06:28:00.089Z,404.00
2022-10-29T06:29:00.095Z,440.00
2022-10-29T06:30:00.059Z,492.00
2022-10-29T06:31:00.047Z,552.00
2022-10-29T06:32:00.033Z,620.00
2022-10-29T06:33:00.039Z,688.00
2022-10-29T06:34:00.019Z,764.00
2022-10-29T06:35:00.020Z,832.00
2022-10-29T06:35:59.992Z,900.00
2022-10-29T06:36:59.986Z,944.00
2022-10-29T06:38:00.525Z,968.00
2022-10-29T06:38:59.957Z,992.00
2022-10-29T06:39:59.945Z,1036.00
2022-10-29T06:40:59.965Z,1084.00
2022-10-29T06:41:59.924Z,1148.00
2022-10-29T06:42:59.915Z,1220.00
2022-10-29T06:43:59.896Z,1300.00
2022-10-29T06:44:59.886Z,1384.00
2022-10-29T06:45:59.877Z,1484.00
2022-10-29T06:46:59.894Z,1564.00
2022-10-29T06:48:00.067Z,1620.00
2022-10-29T06:48:59.845Z,1668.00
2022-10-29T06:49:59.827Z,1720.00
2022-10-29T06:50:59.825Z,1792.00
2022-10-29T06:51:59.806Z,1896.00
2022-10-29T06:53:00.062Z,2000.00
2022-10-29T06:53:59.788Z,2080.00
2022-10-29T06:54:59.776Z,2148.00
2022-10-29T06:55:59.786Z,2208.00
2022-10-29T06:56:59.754Z,2256.00
2022-10-29T06:57:59.745Z,2276.00
2022-10-29T06:58:59.764Z,2120.00
2022-10-29T07:00:03.842Z,1880.00
2022-10-29T07:01:00.755Z,1724.00
2022-10-29T07:01:59.757Z,1624.00
2022-10-29T07:02:59.923Z,1560.00
2022-10-29T07:03:59.675Z,1556.00
2022-10-29T07:04:59.697Z,1612.00
2022-10-29T07:05:59.647Z,1632.00
2022-10-29T07:06:59.645Z,1644.00
2022-10-29T07:07:59.770Z,1692.00
2022-10-29T07:08:59.616Z,1716.00
2022-10-29T07:09:59.656Z,1672.00
2022-10-29T07:10:59.598Z,1540.00
2022-10-29T07:11:59.587Z,1424.00
2022-10-29T07:12:59.576Z,1356.00
2022-10-29T07:13:59.557Z,1296.00
2022-10-29T07:14:59.558Z,1240.00
2022-10-29T07:15:59.559Z,1252.00
2022-10-29T07:16:59.528Z,1324.00
2022-10-29T07:17:59.600Z,1372.00
2022-10-29T07:18:59.508Z,1380.00
2022-10-29T07:19:59.495Z,1360.00
2022-10-29T07:20:59.486Z,1352.00
2022-10-29T07:21:59.488Z,1368.00
2022-10-29T07:22:59.466Z,1448.00
2022-10-29T07:23:59.448Z,1604.00
2022-10-29T07:25:01.257Z,1764.00
2022-10-29T07:25:59.425Z,1928.00
2022-10-29T07:26:59.419Z,1980.00
2022-10-29T07:27:59.778Z,1960.00
2022-10-29T07:28:59.397Z,1932.00
2022-10-29T07:29:59.378Z,1944.00
2022-10-29T07:30:59.380Z,1908.00
2022-10-29T07:31:59.358Z,1812.00
2022-10-29T07:32:59.358Z,1672.00
2022-10-29T07:33:59.348Z,1568.00
2022-10-29T07:34:59.329Z,1520.00
2022-10-29T07:35:59.318Z,1564.00
2022-10-29T07:36:59.308Z,1700.00
2022-10-29T07:38:02.446Z,1892.00
2022-10-29T07:39:00.310Z,2000.00
2022-10-29T07:39:59.269Z,2016.00
2022-10-29T07:40:59.259Z,2040.00
2022-10-29T07:41:59.519Z,2068.00
2022-10-29T07:42:59.348Z,2120.00
2022-10-29T07:43:59.231Z,2260.00
2022-10-29T07:44:59.238Z,2468.00
2022-10-29T07:45:59.199Z,2684.00
2022-10-29T07:46:59.190Z,2956.00
2022-10-29T07:48:02.567Z,3348.00
2022-10-29T07:48:59.178Z,3644.00
2022-10-29T07:49:59.159Z,3804.00
2022-10-29T07:50:59.188Z,3976.00
2022-10-29T07:51:59.129Z,4128.00
2022-10-29T07:52:59.216Z,4188.00
2022-10-29T07:53:59.117Z,4268.00
2022-10-29T07:54:59.109Z,4404.00
2022-10-29T07:55:59.089Z,4568.00
2022-10-29T07:56:59.099Z,4648.00
2022-10-29T07:57:59.158Z,4784.00
2022-10-29T07:58:59.059Z,4836.00
2022-10-29T07:59:59.049Z,4824.00
2022-10-29T08:00:59.067Z,4756.00
2022-10-29T08:01:59.108Z,4728.00
2022-10-29T08:02:59.039Z,4828.00
2022-10-29T08:03:59.000Z,5068.00
2022-10-29T08:04:58.989Z,5304.00
2022-10-29T08:05:58.980Z,5512.00
2022-10-29T08:06:58.975Z,5620.00
2022-10-29T08:07:59.426Z,5664.00
2022-10-29T08:08:58.969Z,5792.00
2022-10-29T08:09:58.930Z,5916.00
2022-10-29T08:10:58.925Z,6112.00
2022-10-29T08:11:58.928Z,6324.00
2022-10-29T08:12:59.541Z,6436.00
2022-10-29T08:13:58.881Z,6500.00
2022-10-29T08:14:58.901Z,6508.00
2022-10-29T08:15:58.862Z,6524.00
2022-10-29T08:16:58.860Z,6584.00
2022-10-29T08:17:58.848Z,6528.00
2022-10-29T08:18:58.836Z,6388.00
2022-10-29T08:19:58.821Z,6412.00
2022-10-29T08:20:58.831Z,6584.00
2022-10-29T08:21:58.813Z,6792.00
2022-10-29T08:22:59.176Z,6896.00
2022-10-29T08:23:58.782Z,6920.00
2022-10-29T08:24:58.867Z,6912.00
2022-10-29T08:25:59.171Z,6880.00
2022-10-29T08:26:58.752Z,6800.00
2022-10-29T08:27:58.738Z,6664.00
2022-10-29T08:28:58.723Z,6568.00
2022-10-29T08:29:58.712Z,6380.00
2022-10-29T08:30:58.703Z,6108.00
2022-10-29T08:31:58.712Z,5812.00
2022-10-29T08:32:59.090Z,5572.00
2022-10-29T08:33:58.662Z,5376.00
2022-10-29T08:34:58.642Z,5228.00
2022-10-29T08:35:58.641Z,5144.00
2022-10-29T08:36:58.631Z,5100.00
2022-10-29T08:37:58.648Z,5084.00
2022-10-29T08:38:58.603Z,5196.00
2022-10-29T08:39:58.592Z,5444.00
2022-10-29T08:40:58.583Z,5668.00
2022-10-29T08:41:58.573Z,5764.00
2022-10-29T08:42:58.859Z,5744.00
2022-10-29T08:43:58.604Z,5844.00
2022-10-29T08:44:58.534Z,6028.00
2022-10-29T08:45:58.526Z,6220.00
2022-10-29T08:46:59.549Z,6380.00
2022-10-29T08:47:58.843Z,6232.00
2022-10-29T08:48:58.492Z,5920.00
2022-10-29T08:49:58.503Z,5488.00
2022-10-29T08:50:58.474Z,5068.00
2022-10-29T08:51:58.462Z,4768.00
2022-10-29T08:54:29.834Z,4576.00
2022-10-29T08:54:59.545Z,4548.00
2022-10-29T08:55:58.555Z,4612.00
2022-10-29T08:56:58.395Z,4800.00
2022-10-29T08:57:58.589Z,5084.00
2022-10-29T08:58:58.375Z,5352.00
2022-10-29T08:59:58.406Z,5440.00
2022-10-29T09:00:58.448Z,5524.00
2022-10-29T09:01:58.518Z,5672.00
2022-10-29T09:02:58.963Z,5880.00
2022-10-29T09:03:58.328Z,6140.00
2022-10-29T09:04:58.314Z,6444.00
2022-10-29T09:05:58.354Z,6752.00
2022-10-29T09:06:58.304Z,6924.00
2022-10-29T09:08:01.255Z,6864.00
2022-10-29T09:08:58.264Z,6604.00
2022-10-29T09:09:58.254Z,6416.00
2022-10-29T09:10:58.244Z,6320.00
2022-10-29T09:11:58.258Z,6228.00
2022-10-29T09:12:58.531Z,6092.00
2022-10-29T09:13:58.206Z,6036.00
2022-10-29T09:14:58.193Z,6064.00
2022-10-29T09:15:58.190Z,6228.00
2022-10-29T09:16:58.177Z,6296.00
2022-10-29T09:17:58.414Z,6208.00
2022-10-29T09:18:58.155Z,6044.00
2022-10-29T09:19:58.136Z,5864.00
2022-10-29T09:20:58.124Z,5672.00
2022-10-29T09:21:58.117Z,5512.00
2022-10-29T09:22:58.124Z,5420.00
2022-10-29T09:23:58.096Z,5420.00
2022-10-29T09:24:58.078Z,5328.00
2022-10-29T09:25:58.076Z,5192.00
2022-10-29T09:26:58.056Z,5172.00
2022-10-29T09:27:58.473Z,5212.00
2022-10-29T09:28:58.086Z,5332.00
2022-10-29T09:29:58.025Z,5452.00
2022-10-29T09:30:58.017Z,5768.00
2022-10-29T09:31:58.006Z,6276.00
2022-10-29T09:32:58.001Z,7008.00
2022-10-29T09:34:01.845Z,7748.00
2022-10-29T09:34:57.997Z,8496.00
2022-10-29T09:35:57.957Z,9004.00
2022-10-29T09:36:57.947Z,9156.00
2022-10-29T09:37:58.388Z,9224.00
2022-10-29T09:38:57.926Z,9504.00
2022-10-29T09:39:57.969Z,9784.00
2022-10-29T09:40:57.937Z,9968.00
2022-10-29T09:41:57.899Z,9888.00
2022-10-29T09:42:57.887Z,9904.00
2022-10-29T09:43:57.878Z,9892.00
2022-10-29T09:44:57.859Z,9680.00
2022-10-29T09:45:57.849Z,9724.00
2022-10-29T09:46:57.869Z,10064.00
2022-10-29T09:47:58.217Z,10332.00
2022-10-29T09:48:57.856Z,10588.00
2022-10-29T09:49:57.982Z,10628.00
2022-10-29T09:50:57.800Z,10692.00
2022-10-29T09:51:58.539Z,11012.00
2022-10-29T09:52:58.312Z,11428.00
2022-10-29T09:53:57.760Z,11276.00
2022-10-29T09:54:57.750Z,11196.00
2022-10-29T09:55:57.740Z,10984.00
2022-10-29T09:56:57.733Z,10664.00
2022-10-29T09:57:57.742Z,11084.00
2022-10-29T09:58:57.699Z,11052.00
2022-10-29T09:59:57.700Z,11564.00
2022-10-29T10:00:57.681Z,11820.00
2022-10-29T10:01:57.762Z,11692.00
2022-10-29T10:02:57.801Z,11408.00
2022-10-29T10:03:57.713Z,11132.00
2022-10-29T10:04:57.633Z,11068.00
2022-10-29T10:05:57.624Z,11128.00
2022-10-29T10:06:57.612Z,11232.00
2022-10-29T10:07:57.778Z,11192.00
2022-10-29T10:08:57.592Z,10932.00
2022-10-29T10:09:57.599Z,10536.00
2022-10-29T10:10:57.568Z,10372.00
2022-10-29T10:11:57.553Z,10332.00
2022-10-29T10:12:57.542Z,10268.00
2022-10-29T10:13:57.532Z,10216.00
2022-10-29T10:14:57.513Z,10556.00
2022-10-29T10:15:57.530Z,10832.00
2022-10-29T10:16:57.493Z,11020.00
2022-10-29T10:17:57.718Z,11196.00
2022-10-29T10:18:57.475Z,11396.00
2022-10-29T10:19:57.463Z,11432.00
2022-10-29T10:20:57.444Z,11420.00
2022-10-29T10:21:57.464Z,11276.00
2022-10-29T10:22:57.688Z,11132.00
2022-10-29T10:23:57.415Z,11108.00
2022-10-29T10:24:57.403Z,11040.00
2022-10-29T10:26:00.474Z,11124.00
2022-10-29T10:26:58.418Z,11368.00
2022-10-29T10:27:57.702Z,11628.00
2022-10-29T10:28:57.353Z,11732.00
2022-10-29T10:29:57.347Z,12040.00
2022-10-29T10:30:57.385Z,12232.00
2022-10-29T10:31:57.325Z,12316.00
2022-10-29T10:32:57.794Z,12116.00
2022-10-29T10:33:57.355Z,12000.00
2022-10-29T10:34:57.287Z,12008.00
2022-10-29T10:35:57.275Z,12196.00
2022-10-29T10:36:57.263Z,12348.00
2022-10-29T10:37:57.623Z,12484.00
2022-10-29T10:38:57.257Z,12320.00
2022-10-29T10:39:57.237Z,12064.00
2022-10-29T10:40:57.216Z,11760.00
2022-10-29T10:41:57.207Z,11348.00
2022-10-29T10:42:57.207Z,10684.00
2022-10-29T10:43:57.206Z,10032.00
2022-10-29T10:44:57.176Z,9632.00
2022-10-29T10:45:57.166Z,9188.00
2022-10-29T10:46:57.147Z,8888.00
2022-10-29T10:47:57.581Z,8684.00
2022-10-29T10:48:57.128Z,8676.00
2022-10-29T10:49:57.137Z,8776.00
2022-10-29T10:50:57.111Z,8828.00
2022-10-29T10:51:57.097Z,9176.00
2022-10-29T10:52:57.377Z,9488.00
2022-10-29T10:53:57.148Z,9832.00
2022-10-29T10:54:57.067Z,10192.00
2022-10-29T10:55:57.070Z,10628.00
2022-10-29T10:56:57.041Z,11224.00
2022-10-29T10:57:57.033Z,12120.00
2022-10-29T10:58:57.008Z,12796.00
2022-10-29T10:59:57.009Z,13168.00
2022-10-29T11:00:57.031Z,12960.00
2022-10-29T11:01:58.844Z,12736.00
2022-10-29T11:02:57.345Z,11944.00
2022-10-29T11:03:56.969Z,11212.00
2022-10-29T11:04:56.947Z,10688.00
2022-10-29T11:05:56.958Z,10380.00
2022-10-29T11:06:56.940Z,10296.00
2022-10-29T11:08:03.989Z,10564.00
2022-10-29T11:08:56.909Z,10864.00
2022-10-29T11:09:56.899Z,11100.00
2022-10-29T11:10:56.892Z,11300.00
2022-10-29T11:11:58.854Z,11496.00
2022-10-29T11:12:56.890Z,11680.00
2022-10-29T11:13:56.860Z,11788.00
2022-10-29T11:14:56.831Z,11944.00
2022-10-29T11:15:56.832Z,12048.00
2022-10-29T11:16:56.810Z,12140.00
2022-10-29T11:17:57.116Z,12164.00
2022-10-29T11:18:56.820Z,12132.00
2022-10-29T11:19:56.781Z,11968.00
2022-10-29T11:20:56.771Z,11828.00
2022-10-29T11:21:56.763Z,11512.00
2022-10-29T11:22:56.912Z,11140.00
2022-10-29T11:23:56.743Z,10904.00
2022-10-29T11:24:56.742Z,10748.00
2022-10-29T11:25:56.713Z,10616.00
2022-10-29T11:26:56.703Z,10624.00
2022-10-29T11:27:56.695Z,10692.00
2022-10-29T11:28:56.681Z,10540.00
2022-10-29T11:29:56.772Z,10316.00
2022-10-29T11:30:56.663Z,10124.00
2022-10-29T11:31:56.652Z,9960.00
2022-10-29T11:32:56.860Z,9936.00
2022-10-29T11:33:56.634Z,9880.00
2022-10-29T11:34:56.615Z,9864.00
2022-10-29T11:36:00.440Z,9632.00
2022-10-29T11:36:57.592Z,9360.00
2022-10-29T11:37:56.934Z,9120.00
2022-10-29T11:38:56.573Z,9012.00
2022-10-29T11:39:56.566Z,9012.00
2022-10-29T11:40:56.545Z,9116.00
2022-10-29T11:41:56.785Z,9124.00
2022-10-29T11:42:56.526Z,9080.00
2022-10-29T11:43:56.554Z,9104.00
2022-10-29T11:44:56.508Z,9260.00
2022-10-29T11:45:56.498Z,9532.00
2022-10-29T11:46:56.498Z,9784.00
2022-10-29T11:47:56.681Z,10024.00
2022-10-29T11:48:56.457Z,10428.00
2022-10-29T11:49:56.456Z,10300.00
2022-10-29T11:50:56.434Z,10356.00
2022-10-29T11:51:56.426Z,10400.00
2022-10-29T11:52:56.639Z,10340.00
2022-10-29T11:53:56.405Z,10548.00
2022-10-29T11:54:56.395Z,10052.00
2022-10-29T11:55:56.387Z,10000.00
2022-10-29T11:56:56.368Z,9408.00
2022-10-29T11:57:56.361Z,9784.00
2022-10-29T11:58:56.372Z,9616.00
2022-10-29T11:59:56.337Z,9216.00
2022-10-29T12:00:56.329Z,8880.00
2022-10-29T12:01:56.344Z,8864.00
2022-10-29T12:02:56.553Z,8740.00
2022-10-29T12:03:56.360Z,8560.00
2022-10-29T12:04:56.302Z,8624.00
2022-10-29T12:05:56.277Z,8728.00
2022-10-29T12:06:56.262Z,8928.00
2022-10-29T12:07:56.502Z,9240.00
2022-10-29T12:08:56.241Z,9556.00
2022-10-29T12:09:56.228Z,9884.00
2022-10-29T12:10:56.240Z,10120.00
2022-10-29T12:11:56.209Z,9760.00
2022-10-29T12:12:56.197Z,9284.00
2022-10-29T12:13:56.189Z,8696.00
2022-10-29T12:14:56.170Z,8148.00
2022-10-29T12:15:56.173Z,7808.00
2022-10-29T12:16:56.171Z,7712.00
2022-10-29T12:17:56.526Z,7820.00
2022-10-29T12:18:56.129Z,7828.00
2022-10-29T12:19:56.136Z,7812.00
2022-10-29T12:20:56.101Z,7828.00
2022-10-29T12:21:56.100Z,7892.00
2022-10-29T12:23:00.895Z,7992.00
2022-10-29T12:23:57.074Z,8232.00
2022-10-29T12:24:56.060Z,8312.00
2022-10-29T12:25:56.060Z,8344.00
2022-10-29T12:26:56.039Z,8284.00
2022-10-29T12:27:56.030Z,8192.00
2022-10-29T12:28:56.035Z,8080.00
2022-10-29T12:29:56.011Z,8048.00
2022-10-29T12:30:55.994Z,8044.00
2022-10-29T12:31:55.983Z,7944.00
2022-10-29T12:32:56.235Z,7800.00
2022-10-29T12:33:55.963Z,7572.00
2022-10-29T12:34:55.978Z,7468.00
2022-10-29T12:35:55.973Z,7308.00
2022-10-29T12:36:57.697Z,7240.00
2022-10-29T12:37:56.119Z,7512.00
2022-10-29T12:38:55.911Z,7848.00
2022-10-29T12:39:55.899Z,7932.00
2022-10-29T12:40:55.904Z,8032.00
2022-10-29T12:41:55.873Z,7960.00
2022-10-29T12:42:55.865Z,7644.00